Peabody, Indiana
Current Conditions -  °F | °C
As of 11:54 PM on Wednesday 17 Dec 2014 (Local Time) from KFWA Reporting Station
Overcast Overcast  
Wind Chill: 18°   Ceiling: 2600
Heat Index: 27°   Visibility: 10mi
Dew Point: 21°   Wind: 9mph
Humidity: 78%   Direction: 280°W
Pressure: 30.25"   Gusts: NA
Location:  41.1479°N, 85.4772°W
Report Text: KFWA 180454Z 28008KT 10SM OVC026 M03/M06 A3025 RMK AO2 SLP252 T10281061 400171033
Loading
Personal Weather Stations






























Interactive Weather Map New forecast layout! Learn more

10-Day Weather Forecast

Advertisements
Track Severe Weather on mobile